createdAt,value
2023-02-08T00:01:08.781Z,10.63
2023-02-08T00:03:36.900Z,11.03
2023-02-08T00:06:05.496Z,11.30
2023-02-08T00:08:35.438Z,11.43
2023-02-08T00:11:03.573Z,10.70
2023-02-08T00:13:32.534Z,11.30
2023-02-08T00:16:00.523Z,10.50
2023-02-08T00:18:29.043Z,11.50
2023-02-08T00:20:57.310Z,11.13
2023-02-08T00:23:25.789Z,12.07
2023-02-08T00:25:55.102Z,11.33
2023-02-08T00:28:23.143Z,12.17
2023-02-08T00:30:51.247Z,12.10
2023-02-08T00:33:19.235Z,12.00
2023-02-08T00:35:47.245Z,12.30
2023-02-08T00:38:15.277Z,11.20
2023-02-08T00:40:43.590Z,11.77
2023-02-08T00:43:12.933Z,11.80
2023-02-08T00:45:41.217Z,11.37
2023-02-08T00:48:09.173Z,11.63
2023-02-08T00:50:37.426Z,10.93
2023-02-08T00:53:05.522Z,11.63
2023-02-08T00:55:33.495Z,11.80
2023-02-08T00:58:01.473Z,11.27
2023-02-08T01:00:30.872Z,11.20
2023-02-08T01:02:58.894Z,11.17
2023-02-08T01:05:26.918Z,11.77
2023-02-08T01:07:54.885Z,11.40
2023-02-08T01:10:22.945Z,12.70
2023-02-08T01:12:50.894Z,12.10
2023-02-08T01:15:19.052Z,13.67
2023-02-08T01:17:48.462Z,13.67
2023-02-08T01:20:16.605Z,12.67
2023-02-08T01:22:44.533Z,12.87
2023-02-08T01:25:12.492Z,13.70
2023-02-08T01:27:40.464Z,12.17
2023-02-08T01:30:09.892Z,12.60
2023-02-08T01:32:37.973Z,12.30
2023-02-08T01:35:08.069Z,12.53
2023-02-08T01:37:36.051Z,13.47
2023-02-08T01:40:04.104Z,12.70
2023-02-08T01:42:32.186Z,13.63
2023-02-08T01:45:23.353Z,13.40
2023-02-08T01:47:55.277Z,13.57
2023-02-08T01:50:30.773Z,13.13
2023-02-08T01:52:59.303Z,13.40
2023-02-08T01:55:31.003Z,14.07
2023-02-08T01:58:03.695Z,14.17
2023-02-08T02:00:33.036Z,14.67
2023-02-08T02:03:02.672Z,14.43
2023-02-08T02:05:36.552Z,14.87
2023-02-08T02:08:05.741Z,16.03
2023-02-08T02:10:36.143Z,14.47
2023-02-08T02:13:07.506Z,15.37
2023-02-08T02:15:35.964Z,15.97
2023-02-08T02:18:06.020Z,16.23
2023-02-08T02:20:48.582Z,17.30
2023-02-08T02:23:40.649Z,17.63
2023-02-08T02:26:50.805Z,16.73
2023-02-08T02:29:49.198Z,16.53
2023-02-08T02:32:32.953Z,17.20
2023-02-08T02:35:06.101Z,16.83
2023-02-08T02:37:44.984Z,17.30
2023-02-08T02:40:22.124Z,17.97
2023-02-08T02:43:18.981Z,18.63
2023-02-08T02:45:54.741Z,16.77
2023-02-08T02:48:31.957Z,17.30
2023-02-08T02:51:04.524Z,16.70
2023-02-08T02:53:38.684Z,17.83
2023-02-08T02:56:11.175Z,18.07
2023-02-08T02:58:41.077Z,16.53
2023-02-08T03:01:09.047Z,17.00
2023-02-08T03:03:38.511Z,17.60
2023-02-08T03:06:10.631Z,17.17
2023-02-08T03:09:08.754Z,16.70
2023-02-08T03:11:38.018Z,15.87
2023-02-08T03:14:44.858Z,16.63
2023-02-08T03:17:31.584Z,16.07
2023-02-08T03:20:08.197Z,19.30
2023-02-08T03:22:45.409Z,18.07
2023-02-08T03:25:18.945Z,18.23
2023-02-08T03:27:53.934Z,18.53
2023-02-08T03:30:28.587Z,17.27
2023-02-08T03:33:01.269Z,16.90
2023-02-08T03:35:34.517Z,16.80
2023-02-08T03:38:06.856Z,16.67
2023-02-08T03:40:38.910Z,17.23
2023-02-08T03:43:14.012Z,17.97
2023-02-08T03:45:47.648Z,16.30
2023-02-08T03:48:18.525Z,16.53
2023-02-08T03:50:51.758Z,16.77
2023-02-08T03:53:22.856Z,16.77
2023-02-08T03:55:56.335Z,18.43
2023-02-08T03:58:27.773Z,15.50
2023-02-08T04:00:59.925Z,17.87
2023-02-08T04:03:30.711Z,17.57
2023-02-08T04:06:00.644Z,17.00
2023-02-08T04:08:28.765Z,17.33
2023-02-08T04:10:56.785Z,16.63
2023-02-08T04:13:24.767Z,16.33
2023-02-08T04:15:52.738Z,17.63
2023-02-08T04:18:20.745Z,17.10
2023-02-08T04:20:48.695Z,17.00
2023-02-08T04:23:18.025Z,17.07
2023-02-08T04:25:45.963Z,16.13
2023-02-08T04:28:14.213Z,16.10
2023-02-08T04:30:42.541Z,16.93
2023-02-08T04:33:13.008Z,17.00
2023-02-08T04:35:40.989Z,16.30
2023-02-08T04:38:08.990Z,16.77
2023-02-08T04:40:38.450Z,16.63
2023-02-08T04:43:06.556Z,17.00
2023-02-08T04:45:34.570Z,16.17
2023-02-08T04:48:03.864Z,16.50
2023-02-08T04:50:31.931Z,16.43
2023-02-08T04:55:54.611Z,16.40
2023-02-08T04:58:22.921Z,16.00
2023-02-08T05:00:50.976Z,16.60
2023-02-08T05:03:18.957Z,16.67
2023-02-08T05:05:46.943Z,16.63
2023-02-08T05:08:14.946Z,17.57
2023-02-08T05:10:45.938Z,17.53
2023-02-08T05:13:15.361Z,16.33
2023-02-08T05:15:43.387Z,15.93
2023-02-08T05:18:11.435Z,16.40
2023-02-08T05:20:39.730Z,15.87
2023-02-08T05:23:07.976Z,17.40
2023-02-08T05:25:35.965Z,17.07
2023-02-08T05:28:04.564Z,15.97
2023-02-08T05:30:33.961Z,17.80
2023-02-08T05:33:02.008Z,16.10
2023-02-08T05:35:30.007Z,16.63
2023-02-08T05:37:57.946Z,16.20
2023-02-08T05:40:25.946Z,17.73
2023-02-08T05:42:53.946Z,17.70
2023-02-08T05:45:21.994Z,16.40
2023-02-08T05:47:51.393Z,15.93
2023-02-08T05:50:19.568Z,17.13
2023-02-08T05:52:47.652Z,17.23
2023-02-08T05:55:15.656Z,17.00
2023-02-08T05:57:43.595Z,18.03
2023-02-08T06:00:12.765Z,16.37
2023-02-08T06:02:40.829Z,16.83
2023-02-08T06:05:10.498Z,15.90
2023-02-08T06:07:38.479Z,16.67
2023-02-08T06:10:07.733Z,15.70
2023-02-08T06:12:36.229Z,18.13
2023-02-08T06:15:04.359Z,16.27
2023-02-08T06:17:32.349Z,17.73
2023-02-08T06:20:00.346Z,16.43
2023-02-08T06:22:29.731Z,19.70
2023-02-08T06:24:57.745Z,17.97
2023-02-08T06:27:25.720Z,17.40
2023-02-08T06:29:53.695Z,18.73
2023-02-08T06:32:21.852Z,17.80
2023-02-08T06:34:51.379Z,17.03
2023-02-08T06:37:19.581Z,17.53
2023-02-08T06:39:48.909Z,17.70
2023-02-08T06:42:16.904Z,19.27
2023-02-08T06:44:54.378Z,19.57
2023-02-08T06:47:22.938Z,19.53
2023-02-08T06:49:51.050Z,19.30
2023-02-08T06:52:19.281Z,20.07
2023-02-08T06:54:48.780Z,19.40
2023-02-08T06:57:16.803Z,17.20
2023-02-08T06:59:44.779Z,16.63
2023-02-08T07:02:14.806Z,17.97
2023-02-08T07:04:43.075Z,17.50
2023-02-08T07:07:11.111Z,17.27
2023-02-08T07:09:39.878Z,16.83
2023-02-08T07:12:10.413Z,17.53
2023-02-08T07:14:41.082Z,15.87
2023-02-08T07:17:09.480Z,17.17
2023-02-08T07:19:37.542Z,16.60
2023-02-08T07:22:08.248Z,17.10
2023-02-08T07:24:37.339Z,16.50
2023-02-08T07:27:06.980Z,18.03
2023-02-08T07:29:36.754Z,15.67
2023-02-08T07:32:06.620Z,17.17
2023-02-08T07:34:37.319Z,18.73
2023-02-08T07:37:05.817Z,16.80
2023-02-08T07:39:33.895Z,17.23
2023-02-08T07:42:01.905Z,17.03
2023-02-08T07:44:29.890Z,17.83
2023-02-08T07:46:59.294Z,18.53
2023-02-08T07:49:27.309Z,17.03
2023-02-08T07:51:55.367Z,18.17
2023-02-08T07:54:23.496Z,17.83
2023-02-08T07:56:51.484Z,16.23
2023-02-08T07:59:19.523Z,17.30
2023-02-08T08:01:47.559Z,17.30
2023-02-08T08:04:16.952Z,17.30
2023-02-08T08:06:46.518Z,18.40
2023-02-08T08:09:15.652Z,17.87
2023-02-08T08:11:43.617Z,17.80
2023-02-08T08:14:11.581Z,18.57
2023-02-08T08:16:40.496Z,19.63
2023-02-08T08:19:08.489Z,20.87
2023-02-08T08:21:37.918Z,18.37
2023-02-08T08:24:06.033Z,55.73
2023-02-08T08:26:35.231Z,28.07
2023-02-08T08:29:03.311Z,42.43
2023-02-08T08:31:31.656Z,21.33
2023-02-08T08:33:59.647Z,24.90
2023-02-08T08:36:27.622Z,24.80
2023-02-08T08:38:56.961Z,22.73
2023-02-08T08:41:27.202Z,23.63
2023-02-08T08:43:55.258Z,59.20
2023-02-08T08:46:23.328Z,56.73
2023-02-08T08:48:52.030Z,54.07
2023-02-08T08:51:20.063Z,53.47
2023-02-08T08:53:48.055Z,29.60
2023-02-08T08:56:17.410Z,28.90
2023-02-08T08:58:45.427Z,24.63
2023-02-08T09:01:14.039Z,25.77
2023-02-08T09:03:42.095Z,41.60
2023-02-08T09:06:10.110Z,53.47
2023-02-08T09:08:38.275Z,35.43
2023-02-08T09:11:07.736Z,23.63
2023-02-08T09:13:37.632Z,21.13
2023-02-08T09:16:09.575Z,19.27
2023-02-08T09:18:37.890Z,36.37
2023-02-08T09:21:10.500Z,31.60
2023-02-08T09:23:39.124Z,30.63
2023-02-08T09:26:09.562Z,22.17
2023-02-08T09:28:39.070Z,20.20
2023-02-08T09:31:10.606Z,25.63
2023-02-08T09:33:38.763Z,32.23
2023-02-08T09:36:08.489Z,22.73
2023-02-08T09:38:37.305Z,28.37
2023-02-08T09:41:25.610Z,32.90
2023-02-08T09:44:09.184Z,26.47
2023-02-08T09:46:40.579Z,24.80
2023-02-08T09:49:15.433Z,19.53
2023-02-08T09:51:47.674Z,21.23
2023-02-08T09:54:20.035Z,23.43
2023-02-08T09:56:50.100Z,28.10
2023-02-08T09:59:23.917Z,25.60
2023-02-08T10:01:54.883Z,22.50
2023-02-08T10:04:29.129Z,18.80
2023-02-08T10:06:57.435Z,19.10
2023-02-08T10:09:27.975Z,19.40
2023-02-08T10:12:07.797Z,18.73
2023-02-08T10:14:53.118Z,17.47
2023-02-08T10:17:46.195Z,20.77
2023-02-08T10:20:41.613Z,20.77
2023-02-08T10:23:25.765Z,21.13
2023-02-08T10:26:15.838Z,19.27
2023-02-08T10:29:16.466Z,27.93
2023-02-08T10:31:58.384Z,35.47
2023-02-08T10:34:37.209Z,25.20
2023-02-08T10:37:14.317Z,32.07
2023-02-08T10:39:42.731Z,26.07
2023-02-08T10:42:16.327Z,26.20
2023-02-08T10:44:57.494Z,23.57
2023-02-08T10:47:39.862Z,21.33
2023-02-08T10:50:15.182Z,27.53
2023-02-08T10:52:43.196Z,20.07
2023-02-08T10:55:16.262Z,16.73
2023-02-08T10:57:47.901Z,17.70
2023-02-08T11:00:21.319Z,17.47
2023-02-08T11:02:53.105Z,16.77
2023-02-08T11:05:32.022Z,16.07
2023-02-08T11:08:08.153Z,16.77
2023-02-08T11:10:36.622Z,16.77
2023-02-08T11:13:07.903Z,17.70
2023-02-08T11:15:40.935Z,14.53
2023-02-08T11:18:21.262Z,17.47
2023-02-08T11:20:51.087Z,15.73
2023-02-08T11:23:23.752Z,16.70
2023-02-08T11:25:52.358Z,14.93
2023-02-08T11:28:26.664Z,16.53
2023-02-08T11:31:03.446Z,14.57
2023-02-08T11:33:32.959Z,15.40
2023-02-08T11:36:05.353Z,15.37
2023-02-08T11:38:36.381Z,14.63
2023-02-08T11:41:14.274Z,13.30
2023-02-08T11:43:42.759Z,14.80
2023-02-08T11:46:12.157Z,13.30
2023-02-08T11:48:45.566Z,15.70
2023-02-08T11:51:24.423Z,17.10
2023-02-08T11:53:52.429Z,14.37
2023-02-08T11:56:22.820Z,15.77
2023-02-08T11:59:03.298Z,15.27
2023-02-08T12:01:32.918Z,16.03
2023-02-08T12:04:05.473Z,15.17
2023-02-08T12:06:59.994Z,15.33
2023-02-08T12:09:43.381Z,16.57
2023-02-08T12:12:20.013Z,16.63
2023-02-08T12:15:00.163Z,15.63
2023-02-08T12:17:48.181Z,14.47
2023-02-08T12:20:38.470Z,14.90
2023-02-08T12:23:35.112Z,15.67
2023-02-08T12:26:13.617Z,14.93
2023-02-08T12:28:52.879Z,15.70
2023-02-08T12:31:29.362Z,15.23
2023-02-08T12:34:06.996Z,14.27
2023-02-08T12:37:15.946Z,15.33
2023-02-08T12:40:12.922Z,14.83
2023-02-08T12:42:53.111Z,14.67
2023-02-08T12:45:55.704Z,14.17
2023-02-08T12:48:37.558Z,13.50
2023-02-08T12:51:16.814Z,14.10
2023-02-08T12:53:51.860Z,14.77
2023-02-08T12:56:23.293Z,15.07
2023-02-08T12:58:59.169Z,13.77
2023-02-08T13:01:33.451Z,14.47
2023-02-08T13:04:07.256Z,14.43
2023-02-08T13:06:42.579Z,12.63
2023-02-08T13:09:21.555Z,12.73
2023-02-08T13:11:53.101Z,12.20
2023-02-08T13:14:31.361Z,13.27
2023-02-08T13:17:05.550Z,13.97
2023-02-08T13:19:41.996Z,14.17
2023-02-08T13:22:15.595Z,12.87
2023-02-08T13:24:50.377Z,12.57
2023-02-08T13:27:22.551Z,12.03
2023-02-08T13:29:52.872Z,12.93
2023-02-08T13:32:29.518Z,12.50
2023-02-08T13:35:02.580Z,12.23
2023-02-08T13:37:32.948Z,13.40
2023-02-08T13:40:06.458Z,13.30
2023-02-08T13:42:38.232Z,11.90
2023-02-08T13:45:09.282Z,12.13
2023-02-08T13:47:45.175Z,11.70
2023-02-08T13:50:50.828Z,10.87
2023-02-08T13:53:20.479Z,11.37
2023-02-08T13:55:59.719Z,11.40
2023-02-08T13:58:39.385Z,10.73
2023-02-08T14:01:18.660Z,10.17
2023-02-08T14:04:25.045Z,10.10
2023-02-08T14:06:57.463Z,10.33
2023-02-08T14:09:29.601Z,10.90
2023-02-08T14:12:03.270Z,9.57
2023-02-08T14:14:34.772Z,10.00
2023-02-08T14:17:22.014Z,10.53
2023-02-08T14:19:59.741Z,9.67
2023-02-08T14:22:29.851Z,9.37
2023-02-08T14:25:05.678Z,9.13
2023-02-08T14:27:39.566Z,10.00
2023-02-08T14:30:10.083Z,8.83
2023-02-08T14:32:40.716Z,10.23
2023-02-08T14:35:19.058Z,9.77
2023-02-08T14:37:47.533Z,8.93
2023-02-08T14:40:36.179Z,9.73
2023-02-08T14:43:31.083Z,9.10
2023-02-08T14:46:35.121Z,8.43
2023-02-08T14:49:06.328Z,8.50
2023-02-08T14:51:38.031Z,8.53
2023-02-08T14:54:18.530Z,8.80
2023-02-08T14:56:54.795Z,9.23
2023-02-08T14:59:27.878Z,8.13
2023-02-08T15:01:59.725Z,9.37
2023-02-08T15:04:28.872Z,8.50
2023-02-08T15:07:22.742Z,8.87
2023-02-08T15:09:50.921Z,8.07
2023-02-08T15:12:25.943Z,8.07
2023-02-08T15:14:57.645Z,8.00
2023-02-08T15:17:35.387Z,8.53
2023-02-08T15:20:06.930Z,8.17
2023-02-08T15:22:37.189Z,8.77
2023-02-08T15:25:22.216Z,9.20
2023-02-08T15:27:52.688Z,8.57
2023-02-08T15:30:32.728Z,8.13
2023-02-08T15:33:02.258Z,8.33
2023-02-08T15:35:32.407Z,8.63
2023-02-08T15:38:00.697Z,7.47
2023-02-08T15:40:30.534Z,8.03
2023-02-08T15:43:05.234Z,8.20
2023-02-08T15:45:35.024Z,9.43
2023-02-08T15:48:03.512Z,8.00
2023-02-08T15:50:33.356Z,7.93
2023-02-08T15:53:03.861Z,8.33
2023-02-08T15:55:35.134Z,9.03
2023-02-08T15:58:07.992Z,8.23
2023-02-08T16:00:38.880Z,7.97
2023-02-08T16:03:10.108Z,8.67
2023-02-08T16:05:39.064Z,7.63
2023-02-08T16:08:08.111Z,8.03
2023-02-08T16:10:43.616Z,8.20
2023-02-08T16:13:19.756Z,8.57
2023-02-08T16:15:57.996Z,8.03
2023-02-08T16:18:40.624Z,8.03
2023-02-08T16:21:22.187Z,9.03
2023-02-08T16:23:52.045Z,8.23
2023-02-08T16:26:23.255Z,8.10
2023-02-08T16:28:58.105Z,8.57
2023-02-08T16:31:30.554Z,8.70
2023-02-08T16:34:01.560Z,7.70
2023-02-08T16:36:34.563Z,10.90
2023-02-08T16:39:23.889Z,9.00
2023-02-08T16:42:14.976Z,9.37
2023-02-08T16:45:13.713Z,9.17
2023-02-08T16:47:44.854Z,8.37
2023-02-08T16:50:16.145Z,9.07
2023-02-08T16:52:44.314Z,8.27
2023-02-08T16:55:19.214Z,7.83
2023-02-08T16:57:50.278Z,8.50
2023-02-08T17:00:22.060Z,8.60
2023-02-08T17:02:52.574Z,8.23
2023-02-08T17:05:22.202Z,9.03
2023-02-08T17:07:50.429Z,7.47
2023-02-08T17:10:23.818Z,6.93
2023-02-08T17:12:52.978Z,7.77
2023-02-08T17:15:24.062Z,7.17
2023-02-08T17:17:54.122Z,7.20
2023-02-08T17:20:23.974Z,7.50
2023-02-08T17:22:53.172Z,7.97
2023-02-08T17:25:21.727Z,7.80
2023-02-08T17:27:53.119Z,7.40
2023-02-08T17:30:25.920Z,7.00
2023-02-08T17:32:56.176Z,7.73
2023-02-08T17:35:25.288Z,7.67
2023-02-08T17:37:54.160Z,7.37
2023-02-08T17:40:23.823Z,7.40
2023-02-08T17:42:53.546Z,6.83
2023-02-08T17:45:22.085Z,6.50
2023-02-08T17:47:50.671Z,6.70
2023-02-08T17:50:20.427Z,7.17
2023-02-08T17:52:49.190Z,7.17
2023-02-08T17:55:18.865Z,6.57
2023-02-08T17:57:47.673Z,6.53
2023-02-08T18:00:18.577Z,6.73
2023-02-08T18:02:47.880Z,7.07
2023-02-08T18:05:16.872Z,6.17
2023-02-08T18:07:46.523Z,6.73
2023-02-08T18:10:15.658Z,7.13
2023-02-08T18:12:44.211Z,6.80
2023-02-08T18:15:15.419Z,7.53
2023-02-08T18:17:44.402Z,6.87
2023-02-08T18:20:14.747Z,7.03
2023-02-08T18:22:43.388Z,7.40
2023-02-08T18:25:14.328Z,8.07
2023-02-08T18:27:42.780Z,7.97
2023-02-08T18:30:12.618Z,8.43
2023-02-08T18:32:40.835Z,8.53
2023-02-08T18:35:09.432Z,8.13
2023-02-08T18:37:38.399Z,8.10
2023-02-08T18:40:09.084Z,7.70
2023-02-08T18:42:38.714Z,8.20
2023-02-08T18:45:07.254Z,8.30
2023-02-08T18:47:36.487Z,7.87
2023-02-08T18:50:05.251Z,8.70
2023-02-08T18:52:33.346Z,9.40
2023-02-08T18:55:01.430Z,7.73
2023-02-08T18:57:29.482Z,8.73
2023-02-08T18:59:58.923Z,8.33
2023-02-08T19:02:27.468Z,7.90
2023-02-08T19:04:55.513Z,9.40
2023-02-08T19:07:23.722Z,8.00
2023-02-08T19:09:51.794Z,8.77
2023-02-08T19:12:21.067Z,8.80
2023-02-08T19:14:50.938Z,9.27
2023-02-08T19:17:20.726Z,9.50
2023-02-08T19:19:49.033Z,9.57
2023-02-08T19:22:17.241Z,8.87
2023-02-08T19:24:45.238Z,8.73
2023-02-08T19:27:13.304Z,9.97
2023-02-08T19:29:41.397Z,8.93
2023-02-08T19:32:09.443Z,9.23
2023-02-08T19:34:38.924Z,8.90
2023-02-08T19:37:06.969Z,8.33
2023-02-08T19:39:35.049Z,8.93
2023-02-08T19:42:03.147Z,8.77
2023-02-08T19:44:31.215Z,9.37
2023-02-08T19:47:00.140Z,8.97
2023-02-08T19:49:28.491Z,10.17
2023-02-08T19:51:58.261Z,8.90
2023-02-08T19:54:26.544Z,10.00
2023-02-08T19:56:55.901Z,8.37
2023-02-08T19:59:26.008Z,8.00
2023-02-08T20:01:54.706Z,8.47
2023-02-08T20:04:23.039Z,8.13
2023-02-08T20:06:52.582Z,8.20
2023-02-08T20:09:22.227Z,7.90
2023-02-08T20:11:57.188Z,8.07
2023-02-08T20:14:26.612Z,8.17
2023-02-08T20:16:54.810Z,8.50
2023-02-08T20:19:22.870Z,8.27
2023-02-08T20:21:50.883Z,8.03
2023-02-08T20:24:19.106Z,8.27
2023-02-08T20:26:49.722Z,8.20
2023-02-08T20:29:18.264Z,7.30
2023-02-08T20:31:48.387Z,9.33
2023-02-08T20:34:20.916Z,8.93
2023-02-08T20:37:05.796Z,7.97
2023-02-08T20:39:35.401Z,7.50
2023-02-08T20:42:05.524Z,8.37
2023-02-08T20:44:33.638Z,8.53
2023-02-08T20:47:01.940Z,8.97
2023-02-08T20:49:32.180Z,7.90
2023-02-08T20:52:00.436Z,7.73
2023-02-08T20:54:28.492Z,7.80
2023-02-08T20:56:56.571Z,8.43
2023-02-08T20:59:25.971Z,9.77
2023-02-08T21:01:53.975Z,9.27
2023-02-08T21:04:23.685Z,10.90
2023-02-08T21:06:52.073Z,8.87
2023-02-08T21:09:21.422Z,10.40
2023-02-08T21:11:50.620Z,11.30
2023-02-08T21:14:21.008Z,11.53
2023-02-08T21:16:52.319Z,10.63
2023-02-08T21:19:21.408Z,11.37
2023-02-08T21:21:51.976Z,12.07
2023-02-08T21:24:20.362Z,10.03
2023-02-08T21:26:48.409Z,9.80
2023-02-08T21:29:16.620Z,9.23
2023-02-08T21:31:44.782Z,8.43
2023-02-08T21:34:14.544Z,9.73
2023-02-08T21:36:42.555Z,8.53
2023-02-08T21:39:10.844Z,9.10
2023-02-08T21:41:39.099Z,10.40
2023-02-08T21:44:08.332Z,8.77
2023-02-08T21:46:36.925Z,8.47
2023-02-08T21:49:22.620Z,8.40
2023-02-08T21:52:09.640Z,9.20
2023-02-08T21:54:44.373Z,8.80
2023-02-08T21:57:16.365Z,8.40
2023-02-08T21:59:44.480Z,9.43
2023-02-08T22:02:15.877Z,9.00
2023-02-08T22:05:01.909Z,8.67
2023-02-08T22:07:40.536Z,8.87
2023-02-08T22:10:09.145Z,8.63
2023-02-08T22:12:37.170Z,8.77
2023-02-08T22:15:05.556Z,9.20
2023-02-08T22:17:33.583Z,8.77
2023-02-08T22:20:01.631Z,9.10
2023-02-08T22:22:31.162Z,8.97
2023-02-08T22:24:59.470Z,9.03
2023-02-08T22:27:27.705Z,9.07
2023-02-08T22:29:55.726Z,9.10
2023-02-08T22:32:23.969Z,9.03
2023-02-08T22:34:52.018Z,9.20
2023-02-08T22:37:20.094Z,8.73
2023-02-08T22:39:49.549Z,8.87
2023-02-08T22:42:17.682Z,8.37
2023-02-08T22:44:46.070Z,9.07
2023-02-08T22:47:14.996Z,8.57
2023-02-08T22:49:43.297Z,9.17
2023-02-08T22:52:12.094Z,8.67
2023-02-08T22:54:40.072Z,8.83
2023-02-08T22:57:10.458Z,8.70
2023-02-08T22:59:39.207Z,8.63
2023-02-08T23:02:07.453Z,10.23
2023-02-08T23:04:37.174Z,9.67
2023-02-08T23:07:05.520Z,9.20
2023-02-08T23:09:33.505Z,8.77
2023-02-08T23:12:01.551Z,7.50
2023-02-08T23:14:30.937Z,9.17
2023-02-08T23:16:58.899Z,7.97
2023-02-08T23:19:27.103Z,8.63
2023-02-08T23:21:55.096Z,9.37
2023-02-08T23:24:23.049Z,8.10
2023-02-08T23:26:51.008Z,7.83
2023-02-08T23:29:18.965Z,9.50
2023-02-08T23:31:48.583Z,8.63
2023-02-08T23:34:16.719Z,9.50
2023-02-08T23:36:44.951Z,8.30
2023-02-08T23:39:12.936Z,8.40
2023-02-08T23:41:40.918Z,8.97
2023-02-08T23:44:08.946Z,9.00
2023-02-08T23:46:37.012Z,7.97
2023-02-08T23:49:06.397Z,7.87
2023-02-08T23:51:34.443Z,8.43
2023-02-08T23:54:02.512Z,9.23
2023-02-08T23:56:32.901Z,9.77
2023-02-08T23:59:01.428Z,8.57
